Terminal Aerodrome Forecast
Issued by NWS

Home | Current Version | Previous Version | Graphics & Text | Print | Product List | Glossary On
Versions: 1 2 3 4 5 6 7 8 9 10 11 12 13 14
000
FTUS43 KGRB 181133
TAFRHI
TAF
KRHI 181133Z 1812/1912 28007KT P6SM FEW250 WS014/32035KT
     FM181800 27007KT P6SM FEW250
     FM190600 30004KT 5SM BR BKN150=

USA.gov is the U.S. government's official web portal to all federal, state and local government web resources and services.